sensor_id;sensor_type;location;lat;lon;timestamp;pressure;altitude;pressure_sealevel;temperature;humidity
32298;BME280;18782;48.984;8.548;2023-04-29T00:02:14;99588.22;;;14.95;100.00
32298;BME280;18782;48.984;8.548;2023-04-29T00:04:41;99587.38;;;15.02;100.00
32298;BME280;18782;48.984;8.548;2023-04-29T00:07:09;99588.22;;;15.01;100.00
32298;BME280;18782;48.984;8.548;2023-04-29T00:09:40;99589.09;;;15.00;100.00
32298;BME280;18782;48.984;8.548;2023-04-29T00:12:08;99591.69;;;15.06;100.00
32298;BME280;18782;48.984;8.548;2023-04-29T00:14:38;99589.97;;;15.09;100.00
32298;BME280;18782;48.984;8.548;2023-04-29T00:17:05;99587.38;;;15.12;100.00
32298;BME280;18782;48.984;8.548;2023-04-29T00:19:33;99591.72;;;15.09;100.00
32298;BME280;18782;48.984;8.548;2023-04-29T00:22:01;99586.53;;;15.09;100.00
32298;BME280;18782;48.984;8.548;2023-04-29T00:24:28;99585.63;;;15.08;100.00
32298;BME280;18782;48.984;8.548;2023-04-29T00:26:56;99593.44;;;15.04;100.00
32298;BME280;18782;48.984;8.548;2023-04-29T00:29:23;99593.44;;;15.04;100.00
32298;BME280;18782;48.984;8.548;2023-04-29T00:31:52;99590.81;;;15.02;100.00
32298;BME280;18782;48.984;8.548;2023-04-29T00:34:20;99589.97;;;15.05;100.00
32298;BME280;18782;48.984;8.548;2023-04-29T00:36:48;99593.41;;;15.07;100.00
32298;BME280;18782;48.984;8.548;2023-04-29T00:39:16;99593.44;;;15.04;100.00
32298;BME280;18782;48.984;8.548;2023-04-29T00:41:44;99589.94;;;15.02;100.00
32298;BME280;18782;48.984;8.548;2023-04-29T00:44:12;99590.84;;;14.99;100.00
32298;BME280;18782;48.984;8.548;2023-04-29T00:46:39;99589.94;;;14.97;100.00
32298;BME280;18782;48.984;8.548;2023-04-29T00:49:09;99595.16;;;14.99;100.00
32298;BME280;18782;48.984;8.548;2023-04-29T00:51:39;99596.00;;;14.99;100.00
32298;BME280;18782;48.984;8.548;2023-04-29T00:54:07;99610.69;;;15.02;100.00
32298;BME280;18782;48.984;8.548;2023-04-29T00:56:38;99595.13;;;15.02;100.00
32298;BME280;18782;48.984;8.548;2023-04-29T00:59:08;99596.00;;;14.99;100.00
32298;BME280;18782;48.984;8.548;2023-04-29T01:01:37;99596.00;;;14.98;100.00
32298;BME280;18782;48.984;8.548;2023-04-29T01:04:04;99601.19;;;14.95;100.00
32298;BME280;18782;48.984;8.548;2023-04-29T01:06:44;99605.50;;;14.90;100.00
32298;BME280;18782;48.984;8.548;2023-04-29T01:09:24;99596.84;;;14.87;100.00
32298;BME280;18782;48.984;8.548;2023-04-29T01:12:05;99602.03;;;14.83;100.00
32298;BME280;18782;48.984;8.548;2023-04-29T01:14:35;99596.84;;;14.75;100.00
32298;BME280;18782;48.984;8.548;2023-04-29T01:17:10;99602.88;;;14.70;100.00
32298;BME280;18782;48.984;8.548;2023-04-29T01:19:43;99600.28;;;14.71;100.00
32298;BME280;18782;48.984;8.548;2023-04-29T01:22:13;99596.84;;;14.68;100.00
32298;BME280;18782;48.984;8.548;2023-04-29T01:24:44;99602.00;;;14.66;100.00
32298;BME280;18782;48.984;8.548;2023-04-29T01:27:28;99604.59;;;14.63;100.00
32298;BME280;18782;48.984;8.548;2023-04-29T01:30:11;99608.88;;;14.58;100.00
32298;BME280;18782;48.984;8.548;2023-04-29T01:32:51;99598.53;;;14.52;100.00
32298;BME280;18782;48.984;8.548;2023-04-29T01:35:31;99603.69;;;14.49;100.00
32298;BME280;18782;48.984;8.548;2023-04-29T01:38:13;99607.06;;;14.45;100.00
32298;BME280;18782;48.984;8.548;2023-04-29T01:40:47;99606.22;;;14.41;100.00
32298;BME280;18782;48.984;8.548;2023-04-29T01:43:24;99602.75;;;14.38;100.00
32298;BME280;18782;48.984;8.548;2023-04-29T01:45:57;99601.88;;;14.32;100.00
32298;BME280;18782;48.984;8.548;2023-04-29T01:48:26;99601.84;;;14.29;100.00
32298;BME280;18782;48.984;8.548;2023-04-29T01:50:54;99607.88;;;14.28;100.00
32298;BME280;18782;48.984;8.548;2023-04-29T01:53:22;99604.41;;;14.23;100.00
32298;BME280;18782;48.984;8.548;2023-04-29T01:55:52;99606.13;;;14.23;100.00
32298;BME280;18782;48.984;8.548;2023-04-29T01:58:29;99613.03;;;14.21;100.00
32298;BME280;18782;48.984;8.548;2023-04-29T02:01:13;99613.88;;;14.18;100.00
32298;BME280;18782;48.984;8.548;2023-04-29T02:03:41;99615.59;;;14.16;100.00
32298;BME280;18782;48.984;8.548;2023-04-29T02:06:10;99615.56;;;14.15;100.00
32298;BME280;18782;48.984;8.548;2023-04-29T02:08:38;99611.25;;;14.14;100.00
32298;BME280;18782;48.984;8.548;2023-04-29T02:11:07;99615.56;;;14.13;100.00
32298;BME280;18782;48.984;8.548;2023-04-29T02:13:38;99611.28;;;14.10;100.00
32298;BME280;18782;48.984;8.548;2023-04-29T02:16:07;99619.03;;;14.12;100.00
32298;BME280;18782;48.984;8.548;2023-04-29T02:18:38;99626.78;;;14.12;100.00
32298;BME280;18782;48.984;8.548;2023-04-29T02:21:06;99618.16;;;14.13;100.00
32298;BME280;18782;48.984;8.548;2023-04-29T02:23:34;99625.06;;;14.11;100.00
32298;BME280;18782;48.984;8.548;2023-04-29T02:26:03;99619.88;;;14.14;100.00
32298;BME280;18782;48.984;8.548;2023-04-29T02:28:33;99625.97;;;14.22;100.00
32298;BME280;18782;48.984;8.548;2023-04-29T02:31:02;99629.47;;;14.27;100.00
32298;BME280;18782;48.984;8.548;2023-04-29T02:33:31;99634.63;;;14.27;100.00
32298;BME280;18782;48.984;8.548;2023-04-29T02:35:58;99632.88;;;14.25;100.00
32298;BME280;18782;48.984;8.548;2023-04-29T02:38:26;99638.06;;;14.20;100.00
32298;BME280;18782;48.984;8.548;2023-04-29T02:40:53;99636.31;;;14.18;100.00
32298;BME280;18782;48.984;8.548;2023-04-29T02:43:21;99643.22;;;14.17;100.00
32298;BME280;18782;48.984;8.548;2023-04-29T02:45:50;99639.75;;;14.12;100.00
32298;BME280;18782;48.984;8.548;2023-04-29T02:48:18;99639.72;;;14.09;100.00
32298;BME280;18782;48.984;8.548;2023-04-29T02:50:46;99643.16;;;14.08;100.00
32298;BME280;18782;48.984;8.548;2023-04-29T02:53:14;99650.94;;;14.05;100.00
32298;BME280;18782;48.984;8.548;2023-04-29T02:55:42;99647.47;;;14.07;100.00
32298;BME280;18782;48.984;8.548;2023-04-29T02:58:10;99639.72;;;14.04;100.00
32298;BME280;18782;48.984;8.548;2023-04-29T03:00:39;99642.28;;;14.01;100.00
32298;BME280;18782;48.984;8.548;2023-04-29T03:03:08;99643.09;;;13.99;100.00
32298;BME280;18782;48.984;8.548;2023-04-29T03:05:36;99642.22;;;13.94;100.00
32298;BME280;18782;48.984;8.548;2023-04-29T03:08:04;99643.94;;;13.89;100.00
32298;BME280;18782;48.984;8.548;2023-04-29T03:10:32;99648.22;;;13.83;100.00
32298;BME280;18782;48.984;8.548;2023-04-29T03:13:01;99655.94;;;13.79;100.00
32298;BME280;18782;48.984;8.548;2023-04-29T03:15:31;99655.94;;;13.79;100.00
32298;BME280;18782;48.984;8.548;2023-04-29T03:17:58;99655.03;;;13.77;100.00
32298;BME280;18782;48.984;8.548;2023-04-29T03:20:28;99649.00;;;13.76;100.00
32298;BME280;18782;48.984;8.548;2023-04-29T03:23:00;99656.78;;;13.76;100.00
32298;BME280;18782;48.984;8.548;2023-04-29T03:25:28;99649.00;;;13.73;100.00
32298;BME280;18782;48.984;8.548;2023-04-29T03:27:56;99644.66;;;13.72;100.00
32298;BME280;18782;48.984;8.548;2023-04-29T03:30:23;99644.66;;;13.72;100.00
32298;BME280;18782;48.984;8.548;2023-04-29T03:32:55;99648.16;;;13.74;100.00
32298;BME280;18782;48.984;8.548;2023-04-29T03:35:24;99650.72;;;13.77;99.93
32298;BME280;18782;48.984;8.548;2023-04-29T03:38:22;99653.31;;;13.77;99.41
32298;BME280;18782;48.984;8.548;2023-04-29T03:40:52;99646.47;;;13.79;99.17
32298;BME280;18782;48.984;8.548;2023-04-29T03:43:20;99657.69;;;13.86;98.60
32298;BME280;18782;48.984;8.548;2023-04-29T03:45:48;99655.13;;;13.84;98.50
32298;BME280;18782;48.984;8.548;2023-04-29T03:48:18;99661.16;;;13.85;98.28
32298;BME280;18782;48.984;8.548;2023-04-29T03:50:46;99668.88;;;13.80;97.97
32298;BME280;18782;48.984;8.548;2023-04-29T03:53:14;99664.53;;;13.76;98.44
32298;BME280;18782;48.984;8.548;2023-04-29T03:55:44;99667.97;;;13.75;98.28
32298;BME280;18782;48.984;8.548;2023-04-29T03:58:11;99667.13;;;13.76;98.33
32298;BME280;18782;48.984;8.548;2023-04-29T04:00:41;99678.31;;;13.77;98.19
32298;BME280;18782;48.984;8.548;2023-04-29T04:03:14;99663.66;;;13.74;98.61
32298;BME280;18782;48.984;8.548;2023-04-29T04:05:42;99668.84;;;13.77;98.86
32298;BME280;18782;48.984;8.548;2023-04-29T04:08:13;99676.56;;;13.73;98.82
32298;BME280;18782;48.984;8.548;2023-04-29T04:10:45;99682.59;;;13.70;98.65
32298;BME280;18782;48.984;8.548;2023-04-29T04:13:29;99685.19;;;13.72;98.52
32298;BME280;18782;48.984;8.548;2023-04-29T04:15:57;99686.09;;;13.75;98.61
32298;BME280;18782;48.984;8.548;2023-04-29T04:18:25;99691.31;;;13.81;98.08
32298;BME280;18782;48.984;8.548;2023-04-29T04:20:53;99693.88;;;13.83;96.77
32298;BME280;18782;48.984;8.548;2023-04-29T04:23:20;99696.50;;;13.84;96.75
32298;BME280;18782;48.984;8.548;2023-04-29T04:25:50;99699.91;;;13.82;96.17
32298;BME280;18782;48.984;8.548;2023-04-29T04:28:37;99701.59;;;13.77;95.73
32298;BME280;18782;48.984;8.548;2023-04-29T04:31:10;99699.84;;;13.71;95.69
32298;BME280;18782;48.984;8.548;2023-04-29T04:33:40;99705.84;;;13.66;96.53
32298;BME280;18782;48.984;8.548;2023-04-29T04:36:07;99713.56;;;13.60;96.05
32298;BME280;18782;48.984;8.548;2023-04-29T04:38:35;99720.34;;;13.50;96.28
32298;BME280;18782;48.984;8.548;2023-04-29T04:41:09;99720.34;;;13.50;96.77
32298;BME280;18782;48.984;8.548;2023-04-29T04:43:37;99716.84;;;13.42;97.08
32298;BME280;18782;48.984;8.548;2023-04-29T04:46:13;99727.16;;;13.39;97.36
32298;BME280;18782;48.984;8.548;2023-04-29T04:48:52;99737.50;;;13.39;97.56
32298;BME280;18782;48.984;8.548;2023-04-29T04:51:20;99739.22;;;13.37;97.73
32298;BME280;18782;48.984;8.548;2023-04-29T04:53:48;99731.47;;;13.40;98.00
32298;BME280;18782;48.984;8.548;2023-04-29T04:56:22;99745.25;;;13.39;98.00
32298;BME280;18782;48.984;8.548;2023-04-29T04:58:50;99754.78;;;13.43;97.58
32298;BME280;18782;48.984;8.548;2023-04-29T05:01:18;99750.38;;;13.34;97.36
32298;BME280;18782;48.984;8.548;2023-04-29T05:03:48;99753.00;;;13.39;97.29
32298;BME280;18782;48.984;8.548;2023-04-29T05:06:15;99765.06;;;13.37;97.30
32298;BME280;18782;48.984;8.548;2023-04-29T05:08:45;99770.16;;;13.30;96.37
32298;BME280;18782;48.984;8.548;2023-04-29T05:11:17;99772.72;;;13.30;95.93
32298;BME280;18782;48.984;8.548;2023-04-29T05:13:58;99771.78;;;13.22;96.27
32298;BME280;18782;48.984;8.548;2023-04-29T05:16:26;99772.56;;;13.20;96.33
32298;BME280;18782;48.984;8.548;2023-04-29T05:18:54;99767.41;;;13.17;96.11
32298;BME280;18782;48.984;8.548;2023-04-29T05:21:26;99770.78;;;13.14;96.34
32298;BME280;18782;48.984;8.548;2023-04-29T05:23:56;99780.41;;;13.21;95.97
32298;BME280;18782;48.984;8.548;2023-04-29T05:26:25;99777.69;;;13.14;95.19
32298;BME280;18782;48.984;8.548;2023-04-29T05:28:58;99776.75;;;13.07;94.19
32298;BME280;18782;48.984;8.548;2023-04-29T05:31:29;99780.22;;;13.07;94.58
32298;BME280;18782;48.984;8.548;2023-04-29T05:34:00;99782.00;;;13.13;94.10
32298;BME280;18782;48.984;8.548;2023-04-29T05:36:29;99782.91;;;13.18;93.07
32298;BME280;18782;48.984;8.548;2023-04-29T05:38:57;99783.00;;;13.21;92.26
32298;BME280;18782;48.984;8.548;2023-04-29T05:41:24;99782.91;;;13.18;91.84
32298;BME280;18782;48.984;8.548;2023-04-29T05:43:52;99790.81;;;13.30;91.71
32298;BME280;18782;48.984;8.548;2023-04-29T05:46:21;99784.84;;;13.36;91.19
32298;BME280;18782;48.984;8.548;2023-04-29T05:48:49;99788.44;;;13.50;90.45
32298;BME280;18782;48.984;8.548;2023-04-29T05:51:17;99789.34;;;13.54;89.96
32298;BME280;18782;48.984;8.548;2023-04-29T05:53:45;99811.88;;;13.63;89.65
32298;BME280;18782;48.984;8.548;2023-04-29T05:56:13;99804.09;;;13.63;89.54
32298;BME280;18782;48.984;8.548;2023-04-29T05:58:42;99811.97;;;13.76;88.77
32298;BME280;18782;48.984;8.548;2023-04-29T06:01:09;99819.03;;;13.90;87.98
32298;BME280;18782;48.984;8.548;2023-04-29T06:03:38;99826.03;;;14.03;87.99
32298;BME280;18782;48.984;8.548;2023-04-29T06:06:31;99824.31;;;14.05;87.22
32298;BME280;18782;48.984;8.548;2023-04-29T06:09:08;99817.47;;;14.12;87.04
32298;BME280;18782;48.984;8.548;2023-04-29T06:11:52;99828.72;;;14.15;86.18
32298;BME280;18782;48.984;8.548;2023-04-29T06:14:20;99823.47;;;14.07;86.31
32298;BME280;18782;48.984;8.548;2023-04-29T06:16:48;99838.19;;;14.10;86.18
32298;BME280;18782;48.984;8.548;2023-04-29T06:19:17;99831.22;;;14.06;86.49
32298;BME280;18782;48.984;8.548;2023-04-29T06:21:44;99839.94;;;14.17;86.02
32298;BME280;18782;48.984;8.548;2023-04-29T06:24:12;99840.81;;;14.18;84.54
32298;BME280;18782;48.984;8.548;2023-04-29T06:26:40;99849.47;;;14.21;84.09
32298;BME280;18782;48.984;8.548;2023-04-29T06:29:07;99852.16;;;14.33;82.17
32298;BME280;18782;48.984;8.548;2023-04-29T06:31:35;99859.88;;;14.29;82.27
32298;BME280;18782;48.984;8.548;2023-04-29T06:34:03;99857.41;;;14.43;82.22
32298;BME280;18782;48.984;8.548;2023-04-29T06:36:36;99861.84;;;14.51;82.19
32298;BME280;18782;48.984;8.548;2023-04-29T06:39:16;99854.13;;;14.62;81.12
32298;BME280;18782;48.984;8.548;2023-04-29T06:42:16;99864.53;;;14.68;79.67
32298;BME280;18782;48.984;8.548;2023-04-29T06:45:10;99868.84;;;14.69;80.70
32298;BME280;18782;48.984;8.548;2023-04-29T06:47:40;99878.38;;;14.73;80.37
32298;BME280;18782;48.984;8.548;2023-04-29T06:50:10;99870.53;;;14.64;80.03
32298;BME280;18782;48.984;8.548;2023-04-29T06:52:39;99884.31;;;14.60;80.41
32298;BME280;18782;48.984;8.548;2023-04-29T06:55:08;99877.44;;;14.64;81.04
32298;BME280;18782;48.984;8.548;2023-04-29T06:57:40;99888.69;;;14.64;80.35
32298;BME280;18782;48.984;8.548;2023-04-29T07:00:08;99886.91;;;14.60;80.69
32298;BME280;18782;48.984;8.548;2023-04-29T07:02:36;99882.66;;;14.68;80.70
32298;BME280;18782;48.984;8.548;2023-04-29T07:05:05;99885.31;;;14.77;80.77
32298;BME280;18782;48.984;8.548;2023-04-29T07:07:34;99890.63;;;14.99;79.56
32298;BME280;18782;48.984;8.548;2023-04-29T07:10:03;99892.41;;;15.06;78.29
32298;BME280;18782;48.984;8.548;2023-04-29T07:12:31;99901.09;;;15.17;78.88
32298;BME280;18782;48.984;8.548;2023-04-29T07:14:58;99901.84;;;14.96;77.25
32298;BME280;18782;48.984;8.548;2023-04-29T07:17:28;99906.13;;;14.90;77.93
32298;BME280;18782;48.984;8.548;2023-04-29T07:19:56;99914.72;;;14.84;78.05
32298;BME280;18782;48.984;8.548;2023-04-29T07:22:23;99911.19;;;14.74;79.51
32298;BME280;18782;48.984;8.548;2023-04-29T07:24:52;99916.56;;;14.99;78.04
32298;BME280;18782;48.984;8.548;2023-04-29T07:27:22;99927.69;;;14.84;77.93
32298;BME280;18782;48.984;8.548;2023-04-29T07:29:50;99919.09;;;14.88;78.70
32298;BME280;18782;48.984;8.548;2023-04-29T07:32:18;99920.72;;;14.77;79.59
32298;BME280;18782;48.984;8.548;2023-04-29T07:34:46;99919.88;;;14.82;78.79
32298;BME280;18782;48.984;8.548;2023-04-29T07:37:14;99917.06;;;14.49;80.24
32298;BME280;18782;48.984;8.548;2023-04-29T07:39:42;99925.84;;;14.68;78.80
32298;BME280;18782;48.984;8.548;2023-04-29T07:42:09;99921.53;;;14.68;78.04
32298;BME280;18782;48.984;8.548;2023-04-29T07:44:38;99931.16;;;14.83;76.99
32298;BME280;18782;48.984;8.548;2023-04-29T07:47:07;99939.72;;;14.74;76.67
32298;BME280;18782;48.984;8.548;2023-04-29T07:49:35;99937.22;;;14.90;77.27
32298;BME280;18782;48.984;8.548;2023-04-29T07:52:03;99938.84;;;14.74;76.98
32298;BME280;18782;48.984;8.548;2023-04-29T07:54:31;99942.34;;;14.80;77.61
32298;BME280;18782;48.984;8.548;2023-04-29T07:56:59;99942.38;;;14.86;76.77
32298;BME280;18782;48.984;8.548;2023-04-29T07:59:29;99938.22;;;15.10;77.75
32298;BME280;18782;48.984;8.548;2023-04-29T08:01:58;99940.03;;;15.26;75.37
32298;BME280;18782;48.984;8.548;2023-04-29T08:04:26;99941.78;;;15.32;73.77
32298;BME280;18782;48.984;8.548;2023-04-29T08:06:59;99940.91;;;15.28;74.05
32298;BME280;18782;48.984;8.548;2023-04-29T08:09:28;99936.50;;;15.12;74.20
32298;BME280;18782;48.984;8.548;2023-04-29T08:11:55;99940.84;;;15.16;74.29
32298;BME280;18782;48.984;8.548;2023-04-29T08:14:24;99941.63;;;15.03;75.19
32298;BME280;18782;48.984;8.548;2023-04-29T08:16:55;99940.75;;;15.01;75.78
32298;BME280;18782;48.984;8.548;2023-04-29T08:19:26;99943.38;;;15.07;75.32
32298;BME280;18782;48.984;8.548;2023-04-29T08:21:55;99949.50;;;15.15;75.93
32298;BME280;18782;48.984;8.548;2023-04-29T08:24:23;99946.69;;;14.84;76.17
32298;BME280;18782;48.984;8.548;2023-04-29T08:26:50;99956.38;;;15.13;75.28
32298;BME280;18782;48.984;8.548;2023-04-29T08:29:19;99954.53;;;14.97;74.81
32298;BME280;18782;48.984;8.548;2023-04-29T08:31:46;99954.47;;;14.84;75.79
32298;BME280;18782;48.984;8.548;2023-04-29T08:34:15;99958.00;;;14.96;75.96
32298;BME280;18782;48.984;8.548;2023-04-29T08:36:44;99954.63;;;15.12;75.27
32298;BME280;18782;48.984;8.548;2023-04-29T08:39:18;99947.81;;;15.29;74.79
32298;BME280;18782;48.984;8.548;2023-04-29T08:41:47;99949.66;;;15.55;74.62
32298;BME280;18782;48.984;8.548;2023-04-29T08:44:19;99949.81;;;15.84;72.42
32298;BME280;18782;48.984;8.548;2023-04-29T08:46:47;99952.44;;;15.91;70.65
32298;BME280;18782;48.984;8.548;2023-04-29T08:49:15;99955.03;;;15.88;70.25
32298;BME280;18782;48.984;8.548;2023-04-29T08:51:44;99954.09;;;15.68;70.41
32298;BME280;18782;48.984;8.548;2023-04-29T08:54:14;99960.09;;;15.61;71.94
32298;BME280;18782;48.984;8.548;2023-04-29T08:56:44;99954.97;;;15.73;72.71
32298;BME280;18782;48.984;8.548;2023-04-29T08:59:13;99958.44;;;15.75;71.73
32298;BME280;18782;48.984;8.548;2023-04-29T09:01:45;99962.81;;;15.88;70.62
32298;BME280;18782;48.984;8.548;2023-04-29T09:04:22;99961.94;;;15.89;69.77
32298;BME280;18782;48.984;8.548;2023-04-29T09:07:03;99966.34;;;16.09;69.84
32298;BME280;18782;48.984;8.548;2023-04-29T09:09:32;99965.50;;;16.31;69.20
32298;BME280;18782;48.984;8.548;2023-04-29T09:12:00;99968.97;;;16.21;67.95
32298;BME280;18782;48.984;8.548;2023-04-29T09:14:29;99965.50;;;16.28;67.23
32298;BME280;18782;48.984;8.548;2023-04-29T09:16:58;99968.97;;;16.49;67.50
32298;BME280;18782;48.984;8.548;2023-04-29T09:19:30;99971.63;;;16.87;67.41
32298;BME280;18782;48.984;8.548;2023-04-29T09:21:58;99969.88;;;16.63;66.14
32298;BME280;18782;48.984;8.548;2023-04-29T09:24:28;99967.28;;;16.67;64.84
32298;BME280;18782;48.984;8.548;2023-04-29T09:26:57;99973.34;;;16.57;63.72
32298;BME280;18782;48.984;8.548;2023-04-29T09:29:25;99973.31;;;16.34;64.84
32298;BME280;18782;48.984;8.548;2023-04-29T09:31:52;99974.13;;;16.03;64.69
32298;BME280;18782;48.984;8.548;2023-04-29T09:34:30;99973.19;;;15.91;66.71
32298;BME280;18782;48.984;8.548;2023-04-29T09:36:58;99979.19;;;15.75;66.85
32298;BME280;18782;48.984;8.548;2023-04-29T09:39:27;99975.75;;;15.75;68.85
32298;BME280;18782;48.984;8.548;2023-04-29T09:42:04;99981.69;;;15.57;69.59
32298;BME280;18782;48.984;8.548;2023-04-29T09:44:32;99978.97;;;15.32;69.96
32298;BME280;18782;48.984;8.548;2023-04-29T09:47:03;99977.25;;;15.31;70.77
32298;BME280;18782;48.984;8.548;2023-04-29T09:49:32;99984.25;;;15.48;70.91
32298;BME280;18782;48.984;8.548;2023-04-29T09:52:02;99980.88;;;15.64;70.21
32298;BME280;18782;48.984;8.548;2023-04-29T09:54:34;99975.78;;;15.82;70.30
32298;BME280;18782;48.984;8.548;2023-04-29T09:57:03;99977.56;;;16.02;69.70
32298;BME280;18782;48.984;8.548;2023-04-29T09:59:33;99980.22;;;16.20;67.87
32298;BME280;18782;48.984;8.548;2023-04-29T10:02:06;99981.09;;;16.37;68.13
32298;BME280;18782;48.984;8.548;2023-04-29T10:04:40;99975.91;;;16.34;66.74
32298;BME280;18782;48.984;8.548;2023-04-29T10:07:13;99978.50;;;16.37;66.34
32298;BME280;18782;48.984;8.548;2023-04-29T10:09:44;99979.41;;;16.61;66.39
32298;BME280;18782;48.984;8.548;2023-04-29T10:12:15;99988.97;;;16.71;65.21
32298;BME280;18782;48.984;8.548;2023-04-29T10:26:38;99987.25;;;16.72;66.46
32298;BME280;18782;48.984;8.548;2023-04-29T10:29:06;99987.19;;;16.70;66.08
32298;BME280;18782;48.984;8.548;2023-04-29T10:31:35;99988.06;;;16.55;66.06
32298;BME280;18782;48.984;8.548;2023-04-29T10:34:04;99977.69;;;16.93;66.57
32298;BME280;18782;48.984;8.548;2023-04-29T10:36:32;99981.13;;;17.11;64.52
32298;BME280;18782;48.984;8.548;2023-04-29T10:39:02;99979.38;;;16.49;68.57
32298;BME280;18782;48.984;8.548;2023-04-29T10:41:41;99986.28;;;16.31;70.21
32298;BME280;18782;48.984;8.548;2023-04-29T10:44:11;99992.31;;;16.18;70.76
32298;BME280;18782;48.984;8.548;2023-04-29T10:46:39;99998.31;;;16.02;71.83
32298;BME280;18782;48.984;8.548;2023-04-29T10:49:07;99995.66;;;15.77;72.39
32298;BME280;18782;48.984;8.548;2023-04-29T10:51:39;99997.38;;;15.72;72.92
32298;BME280;18782;48.984;8.548;2023-04-29T10:54:08;100006.84;;;15.65;73.54
32298;BME280;18782;48.984;8.548;2023-04-29T10:56:40;100006.84;;;15.70;73.38
32298;BME280;18782;48.984;8.548;2023-04-29T10:59:12;100003.41;;;15.74;72.91
32298;BME280;18782;48.984;8.548;2023-04-29T11:01:42;100009.47;;;15.73;72.92
32298;BME280;18782;48.984;8.548;2023-04-29T11:04:10;100005.91;;;15.57;73.02
32298;BME280;18782;48.984;8.548;2023-04-29T11:06:41;100011.94;;;15.55;71.76
32298;BME280;18782;48.984;8.548;2023-04-29T11:09:11;100007.56;;;15.43;70.51
32298;BME280;18782;48.984;8.548;2023-04-29T11:11:54;99999.84;;;15.57;71.30
32298;BME280;18782;48.984;8.548;2023-04-29T11:14:23;100004.31;;;15.81;70.80
32298;BME280;18782;48.984;8.548;2023-04-29T11:16:53;99999.22;;;16.05;68.53
32298;BME280;18782;48.984;8.548;2023-04-29T11:19:24;99991.50;;;16.40;66.63
32298;BME280;18782;48.984;8.548;2023-04-29T11:22:13;99993.28;;;16.75;65.34
32298;BME280;18782;48.984;8.548;2023-04-29T11:24:48;99994.13;;;17.11;64.86
32298;BME280;18782;48.984;8.548;2023-04-29T11:27:19;99988.84;;;17.55;64.32
32298;BME280;18782;48.984;8.548;2023-04-29T11:29:51;99995.63;;;17.99;62.30
32298;BME280;18782;48.984;8.548;2023-04-29T11:32:21;99992.91;;;18.22;61.48
32298;BME280;18782;48.984;8.548;2023-04-29T11:34:49;99996.22;;;18.48;59.48
32298;BME280;18782;48.984;8.548;2023-04-29T11:37:21;99987.31;;;18.77;59.94
32298;BME280;18782;48.984;8.548;2023-04-29T11:39:50;99994.22;;;18.84;59.75
32298;BME280;18782;48.984;8.548;2023-04-29T11:42:20;100002.09;;;18.76;59.33
32298;BME280;18782;48.984;8.548;2023-04-29T11:44:51;100006.41;;;18.79;59.62
32298;BME280;18782;48.984;8.548;2023-04-29T11:47:20;99993.41;;;18.77;58.59
32298;BME280;18782;48.984;8.548;2023-04-29T11:49:48;100002.91;;;18.83;58.35
32298;BME280;18782;48.984;8.548;2023-04-29T11:52:15;99999.56;;;18.63;58.17
32298;BME280;18782;48.984;8.548;2023-04-29T11:54:46;100002.44;;;18.23;58.09
32298;BME280;18782;48.984;8.548;2023-04-29T11:57:13;100001.69;;;18.03;59.46
32298;BME280;18782;48.984;8.548;2023-04-29T11:59:42;100004.38;;;17.83;59.66
32298;BME280;18782;48.984;8.548;2023-04-29T12:02:11;100001.84;;;17.47;60.87
32298;BME280;18782;48.984;8.548;2023-04-29T12:04:44;100000.13;;;17.43;61.83
32298;BME280;18782;48.984;8.548;2023-04-29T12:07:13;100004.53;;;17.29;61.06
32298;BME280;18782;48.984;8.548;2023-04-29T12:09:42;100005.41;;;17.16;61.35
32298;BME280;18782;48.984;8.548;2023-04-29T12:12:11;100009.75;;;17.09;61.16
32298;BME280;18782;48.984;8.548;2023-04-29T12:14:39;100009.72;;;17.02;61.64
32298;BME280;18782;48.984;8.548;2023-04-29T12:17:09;100007.13;;;17.17;61.13
32298;BME280;18782;48.984;8.548;2023-04-29T12:19:38;100003.66;;;17.12;60.48
32298;BME280;18782;48.984;8.548;2023-04-29T12:22:06;100005.44;;;16.87;61.63
32298;BME280;18782;48.984;8.548;2023-04-29T12:24:35;100014.97;;;16.99;63.54
32298;BME280;18782;48.984;8.548;2023-04-29T12:27:07;100017.56;;;16.97;62.24
32298;BME280;18782;48.984;8.548;2023-04-29T12:29:35;100013.22;;;16.94;61.31
32298;BME280;18782;48.984;8.548;2023-04-29T12:32:02;100010.59;;;17.10;62.78
32298;BME280;18782;48.984;8.548;2023-04-29T12:34:32;100015.78;;;17.22;61.96
32298;BME280;18782;48.984;8.548;2023-04-29T12:37:00;100014.94;;;17.15;61.30
32298;BME280;18782;48.984;8.548;2023-04-29T12:39:30;100011.47;;;17.15;61.64
32298;BME280;18782;48.984;8.548;2023-04-29T12:41:59;100012.34;;;17.14;62.05
32298;BME280;18782;48.984;8.548;2023-04-29T12:44:34;100017.56;;;17.05;61.02
32298;BME280;18782;48.984;8.548;2023-04-29T12:47:07;100018.41;;;17.08;61.29
32298;BME280;18782;48.984;8.548;2023-04-29T12:49:37;100019.28;;;16.87;61.44
32298;BME280;18782;48.984;8.548;2023-04-29T12:52:07;100019.28;;;16.78;61.73
32298;BME280;18782;48.984;8.548;2023-04-29T12:54:35;100027.06;;;16.66;61.71
32298;BME280;18782;48.984;8.548;2023-04-29T12:57:03;100027.91;;;16.65;62.27
32298;BME280;18782;48.984;8.548;2023-04-29T12:59:31;100025.28;;;16.47;61.80
32298;BME280;18782;48.984;8.548;2023-04-29T13:01:59;100032.22;;;16.51;62.17
32298;BME280;18782;48.984;8.548;2023-04-29T13:04:27;100027.03;;;16.46;61.41
32298;BME280;18782;48.984;8.548;2023-04-29T13:06:56;100034.78;;;16.29;62.39
32298;BME280;18782;48.984;8.548;2023-04-29T13:09:26;100033.94;;;16.35;62.53
32298;BME280;18782;48.984;8.548;2023-04-29T13:11:53;100034.78;;;16.32;62.06
32298;BME280;18782;48.984;8.548;2023-04-29T13:14:21;100033.06;;;16.43;62.62
32298;BME280;18782;48.984;8.548;2023-04-29T13:16:49;100025.31;;;16.50;62.62
32298;BME280;18782;48.984;8.548;2023-04-29T13:19:16;100028.78;;;16.65;62.96
32298;BME280;18782;48.984;8.548;2023-04-29T13:22:05;100029.66;;;16.66;61.97
32298;BME280;18782;48.984;8.548;2023-04-29T13:24:33;100034.88;;;16.84;61.58